sensor_id;sensor_type;location;lat;lon;timestamp;P1;durP1;ratioP1;P2;durP2;ratioP2
15516;SDS011;7860;52.030;5.572;2023-04-01T00:03:39;15.11;;;8.27;;
15516;SDS011;7860;52.030;5.572;2023-04-01T00:03:39;13.66;;;8.70;;
15516;SDS011;7860;52.030;5.572;2023-04-01T00:03:39;14.48;;;7.88;;
15516;SDS011;7860;52.030;5.572;2023-04-01T00:04:30;13.83;;;7.82;;
15516;SDS011;7860;52.030;5.572;2023-04-01T00:05:31;15.97;;;8.00;;
15516;SDS011;7860;52.030;5.572;2023-04-01T00:06:31;13.50;;;7.75;;
15516;SDS011;7860;52.030;5.572;2023-04-01T00:07:32;13.58;;;8.20;;
15516;SDS011;7860;52.030;5.572;2023-04-01T00:08:32;14.18;;;8.28;;
15516;SDS011;7860;52.030;5.572;2023-04-01T00:09:32;14.72;;;8.32;;
15516;SDS011;7860;52.030;5.572;2023-04-01T00:10:32;12.98;;;7.94;;
15516;SDS011;7860;52.030;5.572;2023-04-01T00:11:33;16.00;;;8.91;;
15516;SDS011;7860;52.030;5.572;2023-04-01T00:12:33;14.60;;;8.48;;
15516;SDS011;7860;52.030;5.572;2023-04-01T00:13:33;14.27;;;8.38;;
15516;SDS011;7860;52.030;5.572;2023-04-01T00:14:33;12.77;;;7.97;;
15516;SDS011;7860;52.030;5.572;2023-04-01T00:15:34;14.91;;;8.52;;
15516;SDS011;7860;52.030;5.572;2023-04-01T00:16:34;15.65;;;8.73;;
15516;SDS011;7860;52.030;5.572;2023-04-01T00:17:34;14.45;;;8.62;;
15516;SDS011;7860;52.030;5.572;2023-04-01T00:18:35;14.18;;;8.81;;
15516;SDS011;7860;52.030;5.572;2023-04-01T00:19:35;16.14;;;8.54;;
15516;SDS011;7860;52.030;5.572;2023-04-01T00:20:36;15.75;;;8.68;;
15516;SDS011;7860;52.030;5.572;2023-04-01T00:21:36;16.76;;;8.95;;
15516;SDS011;7860;52.030;5.572;2023-04-01T00:22:36;15.52;;;8.62;;
15516;SDS011;7860;52.030;5.572;2023-04-01T00:23:37;16.29;;;8.45;;
15516;SDS011;7860;52.030;5.572;2023-04-01T00:24:37;14.75;;;8.99;;
15516;SDS011;7860;52.030;5.572;2023-04-01T00:25:38;16.53;;;9.37;;
15516;SDS011;7860;52.030;5.572;2023-04-01T00:26:38;16.61;;;9.46;;
15516;SDS011;7860;52.030;5.572;2023-04-01T00:27:38;16.86;;;9.24;;
15516;SDS011;7860;52.030;5.572;2023-04-01T00:28:38;16.50;;;9.21;;
15516;SDS011;7860;52.030;5.572;2023-04-01T00:29:41;17.81;;;9.59;;
15516;SDS011;7860;52.030;5.572;2023-04-01T00:30:39;17.10;;;9.29;;
15516;SDS011;7860;52.030;5.572;2023-04-01T00:31:39;18.03;;;9.53;;
15516;SDS011;7860;52.030;5.572;2023-04-01T00:32:39;16.40;;;9.15;;
15516;SDS011;7860;52.030;5.572;2023-04-01T00:33:40;18.90;;;9.59;;
15516;SDS011;7860;52.030;5.572;2023-04-01T00:34:40;18.98;;;9.81;;
15516;SDS011;7860;52.030;5.572;2023-04-01T00:35:40;18.58;;;9.48;;
15516;SDS011;7860;52.030;5.572;2023-04-01T00:36:40;18.11;;;9.51;;
15516;SDS011;7860;52.030;5.572;2023-04-01T00:37:41;18.01;;;9.56;;
15516;SDS011;7860;52.030;5.572;2023-04-01T00:38:41;19.08;;;9.78;;
15516;SDS011;7860;52.030;5.572;2023-04-01T00:39:42;20.43;;;9.73;;
15516;SDS011;7860;52.030;5.572;2023-04-01T00:40:43;18.38;;;9.35;;
15516;SDS011;7860;52.030;5.572;2023-04-01T00:41:42;18.14;;;9.86;;
15516;SDS011;7860;52.030;5.572;2023-04-01T00:42:42;17.33;;;9.63;;
15516;SDS011;7860;52.030;5.572;2023-04-01T00:43:43;17.21;;;9.10;;
15516;SDS011;7860;52.030;5.572;2023-04-01T00:44:44;15.98;;;9.13;;
15516;SDS011;7860;52.030;5.572;2023-04-01T00:45:43;18.28;;;9.45;;
15516;SDS011;7860;52.030;5.572;2023-04-01T00:46:43;18.21;;;9.19;;
15516;SDS011;7860;52.030;5.572;2023-04-01T00:47:43;20.97;;;9.89;;
15516;SDS011;7860;52.030;5.572;2023-04-01T00:48:44;19.17;;;9.49;;
15516;SDS011;7860;52.030;5.572;2023-04-01T00:49:44;19.06;;;9.21;;
15516;SDS011;7860;52.030;5.572;2023-04-01T00:50:45;19.42;;;9.49;;
15516;SDS011;7860;52.030;5.572;2023-04-01T00:51:44;22.77;;;9.17;;
15516;SDS011;7860;52.030;5.572;2023-04-01T00:52:44;25.81;;;10.07;;
15516;SDS011;7860;52.030;5.572;2023-04-01T00:53:45;21.68;;;9.57;;
15516;SDS011;7860;52.030;5.572;2023-04-01T00:54:45;24.23;;;10.75;;
15516;SDS011;7860;52.030;5.572;2023-04-01T00:55:46;21.96;;;10.65;;
15516;SDS011;7860;52.030;5.572;2023-04-01T00:56:46;21.53;;;9.83;;
15516;SDS011;7860;52.030;5.572;2023-04-01T00:57:45;20.77;;;9.97;;
15516;SDS011;7860;52.030;5.572;2023-04-01T00:58:46;22.91;;;9.66;;
15516;SDS011;7860;52.030;5.572;2023-04-01T00:59:46;21.57;;;10.14;;
15516;SDS011;7860;52.030;5.572;2023-04-01T01:00:46;20.13;;;10.32;;
15516;SDS011;7860;52.030;5.572;2023-04-01T01:01:46;25.27;;;10.33;;
15516;SDS011;7860;52.030;5.572;2023-04-01T01:02:46;23.94;;;10.32;;
15516;SDS011;7860;52.030;5.572;2023-04-01T01:03:46;24.47;;;10.15;;
15516;SDS011;7860;52.030;5.572;2023-04-01T01:04:47;22.71;;;10.47;;
15516;SDS011;7860;52.030;5.572;2023-04-01T01:05:52;23.66;;;10.22;;
15516;SDS011;7860;52.030;5.572;2023-04-01T01:06:50;22.53;;;9.53;;
15516;SDS011;7860;52.030;5.572;2023-04-01T01:07:49;26.04;;;9.90;;
15516;SDS011;7860;52.030;5.572;2023-04-01T01:08:52;24.92;;;9.68;;
15516;SDS011;7860;52.030;5.572;2023-04-01T01:09:51;23.06;;;10.51;;
15516;SDS011;7860;52.030;5.572;2023-04-01T01:10:49;21.41;;;10.18;;
15516;SDS011;7860;52.030;5.572;2023-04-01T01:11:50;23.55;;;10.19;;
15516;SDS011;7860;52.030;5.572;2023-04-01T01:12:51;27.03;;;10.46;;
15516;SDS011;7860;52.030;5.572;2023-04-01T01:13:51;29.79;;;9.96;;
15516;SDS011;7860;52.030;5.572;2023-04-01T01:14:53;24.95;;;9.90;;
15516;SDS011;7860;52.030;5.572;2023-04-01T01:15:51;26.22;;;11.03;;
15516;SDS011;7860;52.030;5.572;2023-04-01T01:16:51;24.14;;;10.34;;
15516;SDS011;7860;52.030;5.572;2023-04-01T01:17:53;28.00;;;10.48;;
15516;SDS011;7860;52.030;5.572;2023-04-01T01:18:53;22.72;;;10.17;;
15516;SDS011;7860;52.030;5.572;2023-04-01T01:19:56;26.04;;;10.17;;
15516;SDS011;7860;52.030;5.572;2023-04-01T01:20:56;24.18;;;10.56;;
15516;SDS011;7860;52.030;5.572;2023-04-01T01:21:55;25.66;;;10.62;;
15516;SDS011;7860;52.030;5.572;2023-04-01T01:22:52;26.28;;;10.06;;
15516;SDS011;7860;52.030;5.572;2023-04-01T01:23:57;22.44;;;9.38;;
15516;SDS011;7860;52.030;5.572;2023-04-01T01:24:54;23.08;;;9.68;;
15516;SDS011;7860;52.030;5.572;2023-04-01T01:25:54;24.96;;;10.59;;
15516;SDS011;7860;52.030;5.572;2023-04-01T01:26:53;24.89;;;10.10;;
15516;SDS011;7860;52.030;5.572;2023-04-01T01:27:54;23.27;;;10.21;;
15516;SDS011;7860;52.030;5.572;2023-04-01T01:28:55;24.68;;;10.23;;
15516;SDS011;7860;52.030;5.572;2023-04-01T01:29:59;25.01;;;10.32;;
15516;SDS011;7860;52.030;5.572;2023-04-01T01:30:54;26.34;;;10.36;;
15516;SDS011;7860;52.030;5.572;2023-04-01T01:31:54;23.24;;;9.64;;
15516;SDS011;7860;52.030;5.572;2023-04-01T01:32:58;22.46;;;10.01;;
15516;SDS011;7860;52.030;5.572;2023-04-01T01:33:57;24.21;;;9.74;;
15516;SDS011;7860;52.030;5.572;2023-04-01T01:34:55;26.47;;;10.14;;
15516;SDS011;7860;52.030;5.572;2023-04-01T01:35:55;23.06;;;10.12;;
15516;SDS011;7860;52.030;5.572;2023-04-01T01:36:56;23.36;;;9.62;;
15516;SDS011;7860;52.030;5.572;2023-04-01T01:37:55;24.65;;;10.05;;
15516;SDS011;7860;52.030;5.572;2023-04-01T01:38:55;22.60;;;10.40;;
15516;SDS011;7860;52.030;5.572;2023-04-01T01:39:55;24.18;;;9.92;;
15516;SDS011;7860;52.030;5.572;2023-04-01T01:40:56;22.93;;;9.77;;
15516;SDS011;7860;52.030;5.572;2023-04-01T01:41:56;24.14;;;9.89;;
15516;SDS011;7860;52.030;5.572;2023-04-01T01:42:56;24.01;;;9.62;;
15516;SDS011;7860;52.030;5.572;2023-04-01T01:43:56;23.89;;;10.09;;
15516;SDS011;7860;52.030;5.572;2023-04-01T01:44:56;23.73;;;10.37;;
15516;SDS011;7860;52.030;5.572;2023-04-01T01:45:57;25.32;;;10.16;;
15516;SDS011;7860;52.030;5.572;2023-04-01T01:46:57;27.67;;;10.84;;
15516;SDS011;7860;52.030;5.572;2023-04-01T01:47:57;32.67;;;11.19;;
15516;SDS011;7860;52.030;5.572;2023-04-01T01:48:58;26.04;;;11.11;;
15516;SDS011;7860;52.030;5.572;2023-04-01T01:49:58;24.41;;;11.48;;
15516;SDS011;7860;52.030;5.572;2023-04-01T01:50:58;29.55;;;11.29;;
15516;SDS011;7860;52.030;5.572;2023-04-01T01:51:59;27.40;;;11.13;;
15516;SDS011;7860;52.030;5.572;2023-04-01T01:53:00;30.60;;;11.24;;
15516;SDS011;7860;52.030;5.572;2023-04-01T01:53:59;29.08;;;11.06;;
15516;SDS011;7860;52.030;5.572;2023-04-01T01:55:00;31.52;;;11.87;;
15516;SDS011;7860;52.030;5.572;2023-04-01T01:56:00;31.97;;;11.58;;
15516;SDS011;7860;52.030;5.572;2023-04-01T01:57:02;29.98;;;11.37;;
15516;SDS011;7860;52.030;5.572;2023-04-01T01:58:02;31.16;;;12.86;;
15516;SDS011;7860;52.030;5.572;2023-04-01T01:59:02;31.35;;;13.10;;
15516;SDS011;7860;52.030;5.572;2023-04-01T02:00:03;29.86;;;12.03;;
15516;SDS011;7860;52.030;5.572;2023-04-01T02:01:02;30.45;;;12.61;;
15516;SDS011;7860;52.030;5.572;2023-04-01T02:02:02;32.99;;;12.49;;
15516;SDS011;7860;52.030;5.572;2023-04-01T02:03:03;30.13;;;11.74;;
15516;SDS011;7860;52.030;5.572;2023-04-01T02:04:03;26.07;;;11.01;;
15516;SDS011;7860;52.030;5.572;2023-04-01T02:05:03;27.97;;;11.77;;
15516;SDS011;7860;52.030;5.572;2023-04-01T02:06:04;27.82;;;11.14;;
15516;SDS011;7860;52.030;5.572;2023-04-01T02:07:04;30.42;;;11.51;;
15516;SDS011;7860;52.030;5.572;2023-04-01T02:08:06;31.06;;;11.19;;
15516;SDS011;7860;52.030;5.572;2023-04-01T02:09:05;29.94;;;11.82;;
15516;SDS011;7860;52.030;5.572;2023-04-01T02:10:05;29.12;;;11.26;;
15516;SDS011;7860;52.030;5.572;2023-04-01T02:11:07;33.85;;;11.54;;
15516;SDS011;7860;52.030;5.572;2023-04-01T02:12:06;29.01;;;11.54;;
15516;SDS011;7860;52.030;5.572;2023-04-01T02:13:07;35.04;;;11.98;;
15516;SDS011;7860;52.030;5.572;2023-04-01T02:14:07;28.42;;;11.11;;
15516;SDS011;7860;52.030;5.572;2023-04-01T02:15:08;26.80;;;10.29;;
15516;SDS011;7860;52.030;5.572;2023-04-01T02:16:08;32.02;;;11.50;;
15516;SDS011;7860;52.030;5.572;2023-04-01T02:17:08;24.45;;;10.53;;
15516;SDS011;7860;52.030;5.572;2023-04-01T02:18:08;23.98;;;9.94;;
15516;SDS011;7860;52.030;5.572;2023-04-01T02:19:08;26.59;;;9.94;;
15516;SDS011;7860;52.030;5.572;2023-04-01T02:20:09;25.51;;;10.14;;
15516;SDS011;7860;52.030;5.572;2023-04-01T02:21:09;26.07;;;9.52;;
15516;SDS011;7860;52.030;5.572;2023-04-01T02:22:10;24.51;;;9.57;;
15516;SDS011;7860;52.030;5.572;2023-04-01T02:23:09;27.93;;;9.61;;
15516;SDS011;7860;52.030;5.572;2023-04-01T02:24:11;26.39;;;9.54;;
15516;SDS011;7860;52.030;5.572;2023-04-01T02:25:11;25.50;;;9.42;;
15516;SDS011;7860;52.030;5.572;2023-04-01T02:26:10;22.63;;;8.82;;
15516;SDS011;7860;52.030;5.572;2023-04-01T02:27:11;24.76;;;8.94;;
15516;SDS011;7860;52.030;5.572;2023-04-01T02:28:11;23.52;;;8.95;;
15516;SDS011;7860;52.030;5.572;2023-04-01T02:29:12;21.11;;;7.99;;
15516;SDS011;7860;52.030;5.572;2023-04-01T02:30:12;19.83;;;7.39;;
15516;SDS011;7860;52.030;5.572;2023-04-01T02:31:12;18.91;;;7.58;;
15516;SDS011;7860;52.030;5.572;2023-04-01T02:32:12;24.48;;;8.62;;
15516;SDS011;7860;52.030;5.572;2023-04-01T02:33:12;21.05;;;7.53;;
15516;SDS011;7860;52.030;5.572;2023-04-01T02:34:13;18.31;;;7.62;;
15516;SDS011;7860;52.030;5.572;2023-04-01T02:35:14;19.35;;;7.23;;
15516;SDS011;7860;52.030;5.572;2023-04-01T02:36:13;18.84;;;7.16;;
15516;SDS011;7860;52.030;5.572;2023-04-01T02:37:13;16.87;;;7.53;;
15516;SDS011;7860;52.030;5.572;2023-04-01T02:38:13;19.15;;;7.12;;
15516;SDS011;7860;52.030;5.572;2023-04-01T02:39:14;18.15;;;6.84;;
15516;SDS011;7860;52.030;5.572;2023-04-01T02:40:14;21.41;;;7.37;;
15516;SDS011;7860;52.030;5.572;2023-04-01T02:41:14;19.97;;;7.63;;
15516;SDS011;7860;52.030;5.572;2023-04-01T02:42:14;20.01;;;7.76;;
15516;SDS011;7860;52.030;5.572;2023-04-01T02:43:14;18.00;;;7.42;;
15516;SDS011;7860;52.030;5.572;2023-04-01T02:44:14;19.84;;;7.84;;
15516;SDS011;7860;52.030;5.572;2023-04-01T02:45:15;20.38;;;7.69;;
15516;SDS011;7860;52.030;5.572;2023-04-01T02:46:16;21.73;;;7.38;;
15516;SDS011;7860;52.030;5.572;2023-04-01T02:47:15;19.51;;;7.74;;
15516;SDS011;7860;52.030;5.572;2023-04-01T02:48:16;21.39;;;7.65;;
15516;SDS011;7860;52.030;5.572;2023-04-01T02:49:16;18.85;;;7.62;;
15516;SDS011;7860;52.030;5.572;2023-04-01T02:50:16;20.70;;;7.90;;
15516;SDS011;7860;52.030;5.572;2023-04-01T02:51:17;19.54;;;7.45;;
15516;SDS011;7860;52.030;5.572;2023-04-01T02:52:17;18.38;;;7.85;;
15516;SDS011;7860;52.030;5.572;2023-04-01T02:53:17;17.36;;;7.87;;
15516;SDS011;7860;52.030;5.572;2023-04-01T02:54:17;18.29;;;8.03;;
15516;SDS011;7860;52.030;5.572;2023-04-01T02:55:17;17.76;;;7.92;;
15516;SDS011;7860;52.030;5.572;2023-04-01T02:56:17;19.07;;;8.16;;
15516;SDS011;7860;52.030;5.572;2023-04-01T02:57:17;22.33;;;8.68;;
15516;SDS011;7860;52.030;5.572;2023-04-01T02:58:18;17.60;;;8.12;;
15516;SDS011;7860;52.030;5.572;2023-04-01T02:59:19;16.85;;;7.83;;
15516;SDS011;7860;52.030;5.572;2023-04-01T03:00:19;19.35;;;7.93;;
15516;SDS011;7860;52.030;5.572;2023-04-01T03:01:19;19.99;;;7.86;;
15516;SDS011;7860;52.030;5.572;2023-04-01T03:02:19;17.61;;;7.31;;
15516;SDS011;7860;52.030;5.572;2023-04-01T03:03:20;19.72;;;7.97;;
15516;SDS011;7860;52.030;5.572;2023-04-01T03:04:20;17.21;;;8.07;;
15516;SDS011;7860;52.030;5.572;2023-04-01T03:05:21;18.58;;;8.00;;
15516;SDS011;7860;52.030;5.572;2023-04-01T03:06:21;17.08;;;8.10;;
15516;SDS011;7860;52.030;5.572;2023-04-01T03:07:23;20.43;;;8.51;;
15516;SDS011;7860;52.030;5.572;2023-04-01T03:08:22;19.07;;;8.07;;
15516;SDS011;7860;52.030;5.572;2023-04-01T03:09:23;20.90;;;8.64;;
15516;SDS011;7860;52.030;5.572;2023-04-01T03:10:23;20.55;;;8.75;;
15516;SDS011;7860;52.030;5.572;2023-04-01T03:11:24;18.21;;;8.76;;
15516;SDS011;7860;52.030;5.572;2023-04-01T03:12:24;18.44;;;8.93;;
15516;SDS011;7860;52.030;5.572;2023-04-01T03:13:24;19.13;;;9.30;;
15516;SDS011;7860;52.030;5.572;2023-04-01T03:14:24;19.08;;;9.11;;
15516;SDS011;7860;52.030;5.572;2023-04-01T03:15:25;20.07;;;8.94;;
15516;SDS011;7860;52.030;5.572;2023-04-01T03:16:25;19.20;;;9.12;;
15516;SDS011;7860;52.030;5.572;2023-04-01T03:17:25;19.66;;;8.60;;
15516;SDS011;7860;52.030;5.572;2023-04-01T03:18:25;17.53;;;8.69;;
15516;SDS011;7860;52.030;5.572;2023-04-01T03:19:26;19.95;;;9.59;;
15516;SDS011;7860;52.030;5.572;2023-04-01T03:20:26;17.99;;;9.46;;
15516;SDS011;7860;52.030;5.572;2023-04-01T03:21:26;20.66;;;9.90;;
15516;SDS011;7860;52.030;5.572;2023-04-01T03:22:27;20.66;;;9.34;;
15516;SDS011;7860;52.030;5.572;2023-04-01T03:23:27;20.79;;;9.65;;
15516;SDS011;7860;52.030;5.572;2023-04-01T03:24:28;20.73;;;10.05;;
15516;SDS011;7860;52.030;5.572;2023-04-01T03:25:28;18.72;;;9.11;;
15516;SDS011;7860;52.030;5.572;2023-04-01T03:26:28;18.40;;;9.26;;
15516;SDS011;7860;52.030;5.572;2023-04-01T03:27:28;19.06;;;9.77;;
15516;SDS011;7860;52.030;5.572;2023-04-01T03:28:29;19.22;;;9.53;;
15516;SDS011;7860;52.030;5.572;2023-04-01T03:29:29;17.85;;;9.31;;
15516;SDS011;7860;52.030;5.572;2023-04-01T03:30:29;22.13;;;10.17;;
15516;SDS011;7860;52.030;5.572;2023-04-01T03:31:29;20.99;;;9.82;;
15516;SDS011;7860;52.030;5.572;2023-04-01T03:32:30;18.91;;;9.98;;
15516;SDS011;7860;52.030;5.572;2023-04-01T03:33:31;20.36;;;9.47;;
15516;SDS011;7860;52.030;5.572;2023-04-01T03:34:31;17.55;;;9.48;;
15516;SDS011;7860;52.030;5.572;2023-04-01T03:35:31;17.12;;;9.26;;
15516;SDS011;7860;52.030;5.572;2023-04-01T03:36:31;17.38;;;9.40;;
15516;SDS011;7860;52.030;5.572;2023-04-01T03:37:32;18.72;;;9.55;;
15516;SDS011;7860;52.030;5.572;2023-04-01T03:38:32;18.52;;;9.94;;
15516;SDS011;7860;52.030;5.572;2023-04-01T03:39:33;17.11;;;8.78;;
15516;SDS011;7860;52.030;5.572;2023-04-01T03:40:33;16.49;;;8.49;;
15516;SDS011;7860;52.030;5.572;2023-04-01T03:41:35;15.73;;;8.66;;
15516;SDS011;7860;52.030;5.572;2023-04-01T03:42:34;18.49;;;9.19;;
15516;SDS011;7860;52.030;5.572;2023-04-01T03:43:34;19.18;;;9.49;;
15516;SDS011;7860;52.030;5.572;2023-04-01T03:44:35;17.90;;;9.11;;
15516;SDS011;7860;52.030;5.572;2023-04-01T03:45:35;17.27;;;8.33;;
15516;SDS011;7860;52.030;5.572;2023-04-01T03:46:35;14.89;;;8.17;;
15516;SDS011;7860;52.030;5.572;2023-04-01T03:47:35;17.58;;;8.59;;
15516;SDS011;7860;52.030;5.572;2023-04-01T03:48:35;16.96;;;8.45;;
15516;SDS011;7860;52.030;5.572;2023-04-01T03:49:36;14.58;;;8.49;;
15516;SDS011;7860;52.030;5.572;2023-04-01T03:50:36;14.00;;;7.82;;
15516;SDS011;7860;52.030;5.572;2023-04-01T03:51:37;15.20;;;8.02;;
15516;SDS011;7860;52.030;5.572;2023-04-01T03:52:37;17.53;;;8.28;;
15516;SDS011;7860;52.030;5.572;2023-04-01T03:53:38;15.94;;;8.30;;
15516;SDS011;7860;52.030;5.572;2023-04-01T03:54:38;14.94;;;8.33;;
15516;SDS011;7860;52.030;5.572;2023-04-01T03:55:38;15.90;;;8.54;;
15516;SDS011;7860;52.030;5.572;2023-04-01T03:56:38;16.64;;;8.22;;
15516;SDS011;7860;52.030;5.572;2023-04-01T03:57:39;15.26;;;8.41;;
15516;SDS011;7860;52.030;5.572;2023-04-01T03:58:39;15.94;;;8.95;;
15516;SDS011;7860;52.030;5.572;2023-04-01T03:59:39;17.83;;;8.09;;
15516;SDS011;7860;52.030;5.572;2023-04-01T04:00:39;16.83;;;8.35;;
15516;SDS011;7860;52.030;5.572;2023-04-01T04:01:40;16.39;;;8.04;;
15516;SDS011;7860;52.030;5.572;2023-04-01T04:02:41;14.81;;;8.49;;
15516;SDS011;7860;52.030;5.572;2023-04-01T04:03:41;13.52;;;7.80;;
15516;SDS011;7860;52.030;5.572;2023-04-01T04:04:41;13.85;;;8.23;;
15516;SDS011;7860;52.030;5.572;2023-04-01T04:05:45;15.64;;;7.85;;
15516;SDS011;7860;52.030;5.572;2023-04-01T04:06:42;16.94;;;8.19;;
15516;SDS011;7860;52.030;5.572;2023-04-01T04:07:42;15.63;;;8.37;;
15516;SDS011;7860;52.030;5.572;2023-04-01T04:08:43;16.80;;;8.04;;
15516;SDS011;7860;52.030;5.572;2023-04-01T04:09:43;14.78;;;7.75;;
15516;SDS011;7860;52.030;5.572;2023-04-01T04:10:43;15.88;;;7.97;;
15516;SDS011;7860;52.030;5.572;2023-04-01T04:11:44;15.54;;;7.81;;
15516;SDS011;7860;52.030;5.572;2023-04-01T04:12:44;16.79;;;7.41;;
15516;SDS011;7860;52.030;5.572;2023-04-01T04:13:44;13.85;;;7.49;;
15516;SDS011;7860;52.030;5.572;2023-04-01T04:14:45;15.46;;;7.44;;
15516;SDS011;7860;52.030;5.572;2023-04-01T04:15:45;14.26;;;7.24;;
15516;SDS011;7860;52.030;5.572;2023-04-01T04:16:46;14.33;;;7.69;;
15516;SDS011;7860;52.030;5.572;2023-04-01T04:17:46;13.71;;;7.32;;
15516;SDS011;7860;52.030;5.572;2023-04-01T04:18:46;14.63;;;7.52;;
15516;SDS011;7860;52.030;5.572;2023-04-01T04:19:46;15.36;;;7.42;;
15516;SDS011;7860;52.030;5.572;2023-04-01T04:20:47;15.32;;;7.32;;
15516;SDS011;7860;52.030;5.572;2023-04-01T04:21:47;12.34;;;6.87;;
15516;SDS011;7860;52.030;5.572;2023-04-01T04:22:47;16.08;;;7.31;;
15516;SDS011;7860;52.030;5.572;2023-04-01T04:23:47;15.71;;;7.15;;
15516;SDS011;7860;52.030;5.572;2023-04-01T04:24:48;14.74;;;7.51;;
15516;SDS011;7860;52.030;5.572;2023-04-01T04:25:56;13.94;;;7.09;;
15516;SDS011;7860;52.030;5.572;2023-04-01T04:26:48;13.47;;;6.74;;
15516;SDS011;7860;52.030;5.572;2023-04-01T04:27:49;13.64;;;6.53;;
15516;SDS011;7860;52.030;5.572;2023-04-01T04:28:49;12.29;;;6.83;;
15516;SDS011;7860;52.030;5.572;2023-04-01T04:29:49;13.27;;;6.78;;
15516;SDS011;7860;52.030;5.572;2023-04-01T04:30:50;13.94;;;6.99;;
15516;SDS011;7860;52.030;5.572;2023-04-01T04:31:50;15.67;;;6.75;;
15516;SDS011;7860;52.030;5.572;2023-04-01T04:32:50;13.42;;;7.15;;
15516;SDS011;7860;52.030;5.572;2023-04-01T04:33:50;13.30;;;6.58;;
15516;SDS011;7860;52.030;5.572;2023-04-01T04:34:51;12.05;;;6.89;;
15516;SDS011;7860;52.030;5.572;2023-04-01T04:35:51;14.91;;;6.91;;
15516;SDS011;7860;52.030;5.572;2023-04-01T04:36:51;14.69;;;7.08;;
15516;SDS011;7860;52.030;5.572;2023-04-01T04:37:51;13.03;;;6.75;;
15516;SDS011;7860;52.030;5.572;2023-04-01T04:38:52;14.15;;;6.80;;
15516;SDS011;7860;52.030;5.572;2023-04-01T04:39:52;13.72;;;6.67;;
15516;SDS011;7860;52.030;5.572;2023-04-01T04:40:53;14.35;;;7.00;;
15516;SDS011;7860;52.030;5.572;2023-04-01T04:41:53;11.84;;;6.62;;
15516;SDS011;7860;52.030;5.572;2023-04-01T04:42:53;13.00;;;7.00;;
15516;SDS011;7860;52.030;5.572;2023-04-01T04:43:54;13.86;;;6.75;;
15516;SDS011;7860;52.030;5.572;2023-04-01T04:44:54;11.57;;;6.85;;
15516;SDS011;7860;52.030;5.572;2023-04-01T04:45:55;13.18;;;6.37;;
15516;SDS011;7860;52.030;5.572;2023-04-01T04:46:55;15.02;;;6.76;;
15516;SDS011;7860;52.030;5.572;2023-04-01T04:47:55;14.81;;;7.00;;
15516;SDS011;7860;52.030;5.572;2023-04-01T04:48:56;12.16;;;6.17;;
15516;SDS011;7860;52.030;5.572;2023-04-01T04:49:57;14.10;;;6.31;;
15516;SDS011;7860;52.030;5.572;2023-04-01T04:50:57;13.07;;;6.55;;
15516;SDS011;7860;52.030;5.572;2023-04-01T04:51:57;13.23;;;6.44;;
15516;SDS011;7860;52.030;5.572;2023-04-01T04:52:58;13.84;;;6.51;;
15516;SDS011;7860;52.030;5.572;2023-04-01T04:53:58;12.69;;;6.65;;
15516;SDS011;7860;52.030;5.572;2023-04-01T04:54:58;13.43;;;6.81;;
15516;SDS011;7860;52.030;5.572;2023-04-01T04:55:59;13.30;;;6.29;;
15516;SDS011;7860;52.030;5.572;2023-04-01T04:57:00;12.33;;;6.28;;
15516;SDS011;7860;52.030;5.572;2023-04-01T04:58:00;12.87;;;6.27;;
15516;SDS011;7860;52.030;5.572;2023-04-01T04:59:01;12.63;;;6.12;;
15516;SDS011;7860;52.030;5.572;2023-04-01T05:00:02;12.72;;;6.32;;
15516;SDS011;7860;52.030;5.572;2023-04-01T05:01:05;14.48;;;6.70;;
15516;SDS011;7860;52.030;5.572;2023-04-01T05:02:02;11.51;;;6.11;;
15516;SDS011;7860;52.030;5.572;2023-04-01T05:03:03;13.89;;;6.49;;
15516;SDS011;7860;52.030;5.572;2023-04-01T05:04:03;12.11;;;6.62;;
15516;SDS011;7860;52.030;5.572;2023-04-01T05:05:04;13.88;;;6.39;;
15516;SDS011;7860;52.030;5.572;2023-04-01T05:06:04;14.83;;;6.65;;
15516;SDS011;7860;52.030;5.572;2023-04-01T05:07:05;11.87;;;6.67;;
15516;SDS011;7860;52.030;5.572;2023-04-01T05:08:05;13.91;;;6.49;;
15516;SDS011;7860;52.030;5.572;2023-04-01T05:09:05;13.68;;;6.42;;
15516;SDS011;7860;52.030;5.572;2023-04-01T05:10:05;13.32;;;6.69;;
15516;SDS011;7860;52.030;5.572;2023-04-01T05:11:06;13.20;;;6.44;;
15516;SDS011;7860;52.030;5.572;2023-04-01T05:12:06;12.37;;;6.67;;
15516;SDS011;7860;52.030;5.572;2023-04-01T05:13:06;14.80;;;6.46;;
15516;SDS011;7860;52.030;5.572;2023-04-01T05:14:11;13.81;;;7.08;;
15516;SDS011;7860;52.030;5.572;2023-04-01T05:15:07;14.05;;;7.09;;
15516;SDS011;7860;52.030;5.572;2023-04-01T05:16:07;15.84;;;7.13;;
15516;SDS011;7860;52.030;5.572;2023-04-01T05:17:08;15.27;;;7.03;;
15516;SDS011;7860;52.030;5.572;2023-04-01T05:18:08;15.39;;;6.89;;
15516;SDS011;7860;52.030;5.572;2023-04-01T05:19:08;15.25;;;6.66;;
15516;SDS011;7860;52.030;5.572;2023-04-01T05:20:08;13.65;;;6.53;;
15516;SDS011;7860;52.030;5.572;2023-04-01T05:21:08;15.15;;;6.94;;
15516;SDS011;7860;52.030;5.572;2023-04-01T05:22:08;13.18;;;6.36;;
15516;SDS011;7860;52.030;5.572;2023-04-01T05:23:09;15.08;;;7.09;;
15516;SDS011;7860;52.030;5.572;2023-04-01T05:24:10;14.84;;;6.77;;
15516;SDS011;7860;52.030;5.572;2023-04-01T05:25:10;15.33;;;6.65;;
15516;SDS011;7860;52.030;5.572;2023-04-01T05:26:11;14.70;;;6.70;;
15516;SDS011;7860;52.030;5.572;2023-04-01T05:27:10;14.20;;;6.42;;
15516;SDS011;7860;52.030;5.572;2023-04-01T05:28:11;14.39;;;6.41;;
15516;SDS011;7860;52.030;5.572;2023-04-01T05:29:11;13.12;;;5.85;;
15516;SDS011;7860;52.030;5.572;2023-04-01T05:30:11;15.43;;;6.41;;
15516;SDS011;7860;52.030;5.572;2023-04-01T05:31:12;14.51;;;6.05;;
15516;SDS011;7860;52.030;5.572;2023-04-01T05:32:12;16.03;;;6.50;;
15516;SDS011;7860;52.030;5.572;2023-04-01T05:33:12;14.85;;;6.33;;
15516;SDS011;7860;52.030;5.572;2023-04-01T05:34:13;19.54;;;6.81;;
15516;SDS011;7860;52.030;5.572;2023-04-01T05:35:13;15.71;;;6.15;;
15516;SDS011;7860;52.030;5.572;2023-04-01T05:36:14;13.74;;;6.10;;
15516;SDS011;7860;52.030;5.572;2023-04-01T05:37:14;13.85;;;6.23;;
15516;SDS011;7860;52.030;5.572;2023-04-01T05:38:14;15.41;;;5.93;;
15516;SDS011;7860;52.030;5.572;2023-04-01T05:39:14;13.22;;;5.80;;
15516;SDS011;7860;52.030;5.572;2023-04-01T05:40:15;12.81;;;5.68;;
15516;SDS011;7860;52.030;5.572;2023-04-01T05:41:15;13.66;;;5.69;;
15516;SDS011;7860;52.030;5.572;2023-04-01T05:42:15;13.75;;;6.07;;
15516;SDS011;7860;52.030;5.572;2023-04-01T05:43:16;15.38;;;6.07;;
15516;SDS011;7860;52.030;5.572;2023-04-01T05:44:17;12.35;;;5.36;;
15516;SDS011;7860;52.030;5.572;2023-04-01T05:45:16;12.50;;;5.39;;
15516;SDS011;7860;52.030;5.572;2023-04-01T05:46:17;12.08;;;5.32;;
15516;SDS011;7860;52.030;5.572;2023-04-01T05:47:17;11.29;;;4.69;;
15516;SDS011;7860;52.030;5.572;2023-04-01T05:48:17;12.55;;;5.01;;
15516;SDS011;7860;52.030;5.572;2023-04-01T05:49:18;11.93;;;5.07;;
15516;SDS011;7860;52.030;5.572;2023-04-01T05:50:18;12.98;;;4.80;;
15516;SDS011;7860;52.030;5.572;2023-04-01T05:51:19;11.32;;;4.87;;
15516;SDS011;7860;52.030;5.572;2023-04-01T05:52:19;11.18;;;4.69;;
15516;SDS011;7860;52.030;5.572;2023-04-01T05:53:19;12.84;;;5.01;;
15516;SDS011;7860;52.030;5.572;2023-04-01T05:54:19;11.86;;;4.94;;
15516;SDS011;7860;52.030;5.572;2023-04-01T05:55:19;11.93;;;4.74;;
15516;SDS011;7860;52.030;5.572;2023-04-01T05:56:20;13.43;;;5.12;;
15516;SDS011;7860;52.030;5.572;2023-04-01T05:57:20;11.70;;;4.74;;
15516;SDS011;7860;52.030;5.572;2023-04-01T05:58:21;11.50;;;4.88;;
15516;SDS011;7860;52.030;5.572;2023-04-01T05:59:21;11.48;;;4.99;;
15516;SDS011;7860;52.030;5.572;2023-04-01T06:00:21;10.74;;;4.56;;
15516;SDS011;7860;52.030;5.572;2023-04-01T06:01:21;11.00;;;5.02;;
15516;SDS011;7860;52.030;5.572;2023-04-01T06:02:22;10.59;;;4.77;;
15516;SDS011;7860;52.030;5.572;2023-04-01T06:03:22;11.92;;;5.15;;